sensor_id;sensor_type;location;lat;lon;timestamp;pressure;altitude;pressure_sealevel;temperature;humidity
69219;BME280;56232;53.384;-2.732;2024-01-27T00:01:31;102654.63;;;5.03;41.76
69219;BME280;56232;53.384;-2.732;2024-01-27T00:03:57;102656.95;;;5.69;42.20
69219;BME280;56232;53.384;-2.732;2024-01-27T00:06:36;102662.95;;;5.73;42.15
69219;BME280;56232;53.384;-2.732;2024-01-27T00:08:48;102665.82;;;5.83;41.96
69219;BME280;56232;53.384;-2.732;2024-01-27T00:11:14;102668.00;;;6.08;41.74
69219;BME280;56232;53.384;-2.732;2024-01-27T00:13:40;102667.74;;;5.15;41.79
69219;BME280;56232;53.384;-2.732;2024-01-27T00:16:06;102662.66;;;5.34;41.71
69219;BME280;56232;53.384;-2.732;2024-01-27T00:18:31;102660.27;;;6.46;41.27
69219;BME280;56232;53.384;-2.732;2024-01-27T00:20:57;102665.52;;;5.44;41.47
69219;BME280;56232;53.384;-2.732;2024-01-27T00:23:24;102668.21;;;5.45;41.32
69219;BME280;56232;53.384;-2.732;2024-01-27T00:25:48;102670.51;;;5.48;41.32
69219;BME280;56232;53.384;-2.732;2024-01-27T00:28:13;102667.98;;;5.50;41.27
69219;BME280;56232;53.384;-2.732;2024-01-27T00:30:39;102666.13;;;5.54;41.31
69219;BME280;56232;53.384;-2.732;2024-01-27T00:33:05;102664.48;;;5.55;41.29
69219;BME280;56232;53.384;-2.732;2024-01-27T00:35:30;102666.45;;;6.58;41.02
69219;BME280;56232;53.384;-2.732;2024-01-27T00:37:56;102670.34;;;5.40;41.30
69219;BME280;56232;53.384;-2.732;2024-01-27T00:40:23;102673.54;;;5.78;41.30
69219;BME280;56232;53.384;-2.732;2024-01-27T00:42:48;102670.75;;;5.26;41.47
69219;BME280;56232;53.384;-2.732;2024-01-27T00:45:13;102660.73;;;5.33;41.22
69219;BME280;56232;53.384;-2.732;2024-01-27T00:47:39;102658.07;;;5.85;41.19
69219;BME280;56232;53.384;-2.732;2024-01-27T00:50:05;102653.41;;;5.87;41.28
69219;BME280;56232;53.384;-2.732;2024-01-27T00:52:30;102657.55;;;5.98;41.25
69219;BME280;56232;53.384;-2.732;2024-01-27T00:54:56;102654.06;;;5.57;41.23
69219;BME280;56232;53.384;-2.732;2024-01-27T00:57:22;102654.79;;;5.70;41.16
69219;BME280;56232;53.384;-2.732;2024-01-27T00:59:48;102655.00;;;5.90;41.13
69219;BME280;56232;53.384;-2.732;2024-01-27T01:02:13;102653.83;;;6.10;40.83
69219;BME280;56232;53.384;-2.732;2024-01-27T01:04:39;102645.64;;;6.22;40.70
69219;BME280;56232;53.384;-2.732;2024-01-27T01:07:05;102654.89;;;6.21;40.68
69219;BME280;56232;53.384;-2.732;2024-01-27T01:09:30;102655.51;;;6.34;40.93
69219;BME280;56232;53.384;-2.732;2024-01-27T01:11:56;102655.72;;;6.53;40.77
69219;BME280;56232;53.384;-2.732;2024-01-27T01:14:23;102661.20;;;6.67;40.77
69219;BME280;56232;53.384;-2.732;2024-01-27T01:16:47;102664.50;;;6.82;40.88
69219;BME280;56232;53.384;-2.732;2024-01-27T01:19:13;102668.94;;;6.48;40.61
69219;BME280;56232;53.384;-2.732;2024-01-27T01:21:39;102670.72;;;6.49;40.34
69219;BME280;56232;53.384;-2.732;2024-01-27T01:24:04;102667.03;;;6.55;40.55
69219;BME280;56232;53.384;-2.732;2024-01-27T01:26:30;102662.58;;;6.66;40.50
69219;BME280;56232;53.384;-2.732;2024-01-27T01:28:56;102660.02;;;6.28;40.32
69219;BME280;56232;53.384;-2.732;2024-01-27T01:31:22;102662.53;;;7.29;39.99
69219;BME280;56232;53.384;-2.732;2024-01-27T01:33:47;102661.41;;;6.43;40.29
69219;BME280;56232;53.384;-2.732;2024-01-27T01:36:12;102667.11;;;6.99;40.38
69219;BME280;56232;53.384;-2.732;2024-01-27T01:38:38;102669.95;;;7.02;40.55
69219;BME280;56232;53.384;-2.732;2024-01-27T01:41:04;102673.55;;;7.03;40.52
69219;BME280;56232;53.384;-2.732;2024-01-27T01:43:30;102664.35;;;7.16;40.48
69219;BME280;56232;53.384;-2.732;2024-01-27T01:45:55;102656.85;;;7.12;40.49
69219;BME280;56232;53.384;-2.732;2024-01-27T01:48:22;102654.29;;;6.52;40.53
69219;BME280;56232;53.384;-2.732;2024-01-27T01:50:47;102656.49;;;6.96;40.74
69219;BME280;56232;53.384;-2.732;2024-01-27T01:53:12;102657.04;;;6.90;40.94
69219;BME280;56232;53.384;-2.732;2024-01-27T01:55:43;102652.29;;;7.02;41.04
69219;BME280;56232;53.384;-2.732;2024-01-27T01:58:04;102651.93;;;6.67;40.92
69219;BME280;56232;53.384;-2.732;2024-01-27T02:02:55;102648.81;;;7.40;40.16
69219;BME280;56232;53.384;-2.732;2024-01-27T02:05:21;102646.33;;;7.43;40.03
69219;BME280;56232;53.384;-2.732;2024-01-27T02:07:46;102646.62;;;6.92;40.17
69219;BME280;56232;53.384;-2.732;2024-01-27T02:10:13;102636.42;;;7.70;39.97
69219;BME280;56232;53.384;-2.732;2024-01-27T02:12:38;102639.59;;;7.22;39.88
69219;BME280;56232;53.384;-2.732;2024-01-27T02:15:04;102641.45;;;7.22;39.78
69219;BME280;56232;53.384;-2.732;2024-01-27T02:17:29;102646.65;;;7.26;39.88
69219;BME280;56232;53.384;-2.732;2024-01-27T02:19:55;102640.38;;;7.26;39.66
69219;BME280;56232;53.384;-2.732;2024-01-27T02:22:20;102641.39;;;7.53;39.98
69219;BME280;56232;53.384;-2.732;2024-01-27T02:24:46;102643.76;;;7.11;39.89
69219;BME280;56232;53.384;-2.732;2024-01-27T02:27:12;102645.01;;;6.50;39.94
69219;BME280;56232;53.384;-2.732;2024-01-27T02:29:38;102649.03;;;6.79;40.20
69219;BME280;56232;53.384;-2.732;2024-01-27T02:32:04;102646.75;;;7.16;40.29
69219;BME280;56232;53.384;-2.732;2024-01-27T02:34:29;102645.46;;;7.08;40.38
69219;BME280;56232;53.384;-2.732;2024-01-27T02:36:55;102647.91;;;7.04;40.41
69219;BME280;56232;53.384;-2.732;2024-01-27T02:39:20;102651.52;;;6.56;40.31
69219;BME280;56232;53.384;-2.732;2024-01-27T02:41:46;102644.85;;;6.99;40.34
69219;BME280;56232;53.384;-2.732;2024-01-27T02:44:12;102644.93;;;6.88;40.39
69219;BME280;56232;53.384;-2.732;2024-01-27T02:46:37;102637.94;;;6.67;40.54
69219;BME280;56232;53.384;-2.732;2024-01-27T02:49:02;102634.18;;;6.61;40.47
69219;BME280;56232;53.384;-2.732;2024-01-27T02:51:28;102629.20;;;7.12;40.37
69219;BME280;56232;53.384;-2.732;2024-01-27T02:53:53;102632.63;;;6.45;40.38
69219;BME280;56232;53.384;-2.732;2024-01-27T02:56:19;102630.89;;;6.37;40.34
69219;BME280;56232;53.384;-2.732;2024-01-27T02:58:44;102631.69;;;5.69;40.46
69219;BME280;56232;53.384;-2.732;2024-01-27T03:01:10;102629.68;;;6.16;40.43
69219;BME280;56232;53.384;-2.732;2024-01-27T03:03:35;102628.46;;;6.18;40.40
69219;BME280;56232;53.384;-2.732;2024-01-27T03:06:01;102628.62;;;6.09;40.43
69219;BME280;56232;53.384;-2.732;2024-01-27T03:08:27;102622.33;;;6.55;40.43
69219;BME280;56232;53.384;-2.732;2024-01-27T03:10:53;102627.33;;;6.36;40.81
69219;BME280;56232;53.384;-2.732;2024-01-27T03:13:18;102625.33;;;6.14;40.87
69219;BME280;56232;53.384;-2.732;2024-01-27T03:15:44;102625.81;;;5.95;41.11
69219;BME280;56232;53.384;-2.732;2024-01-27T03:18:09;102626.70;;;5.83;41.11
69219;BME280;56232;53.384;-2.732;2024-01-27T03:20:35;102628.46;;;5.70;41.24
69219;BME280;56232;53.384;-2.732;2024-01-27T03:23:00;102632.29;;;5.66;41.22
69219;BME280;56232;53.384;-2.732;2024-01-27T03:25:26;102633.58;;;5.02;41.14
69219;BME280;56232;53.384;-2.732;2024-01-27T03:27:51;102640.05;;;5.51;41.39
69219;BME280;56232;53.384;-2.732;2024-01-27T03:30:17;102638.07;;;5.87;41.44
69219;BME280;56232;53.384;-2.732;2024-01-27T03:32:42;102634.22;;;5.17;41.67
69219;BME280;56232;53.384;-2.732;2024-01-27T03:35:08;102635.37;;;6.24;41.78
69219;BME280;56232;53.384;-2.732;2024-01-27T03:37:34;102636.19;;;6.18;41.79
69219;BME280;56232;53.384;-2.732;2024-01-27T03:39:59;102635.77;;;6.19;41.69
69219;BME280;56232;53.384;-2.732;2024-01-27T03:42:25;102639.58;;;5.12;41.60
69219;BME280;56232;53.384;-2.732;2024-01-27T03:44:51;102637.69;;;5.55;41.70
69219;BME280;56232;53.384;-2.732;2024-01-27T03:47:17;102632.26;;;5.54;41.77
69219;BME280;56232;53.384;-2.732;2024-01-27T03:49:42;102631.10;;;6.11;41.89
69219;BME280;56232;53.384;-2.732;2024-01-27T03:52:08;102627.41;;;5.08;41.72
69219;BME280;56232;53.384;-2.732;2024-01-27T03:54:33;102627.96;;;5.09;41.65
69219;BME280;56232;53.384;-2.732;2024-01-27T03:56:59;102622.43;;;6.21;41.56
69219;BME280;56232;53.384;-2.732;2024-01-27T03:59:25;102611.72;;;6.14;41.57
69219;BME280;56232;53.384;-2.732;2024-01-27T04:01:50;102606.27;;;5.50;41.72
69219;BME280;56232;53.384;-2.732;2024-01-27T04:04:15;102601.83;;;5.09;41.62
69219;BME280;56232;53.384;-2.732;2024-01-27T04:06:41;102597.53;;;5.67;41.50
69219;BME280;56232;53.384;-2.732;2024-01-27T04:09:07;102590.17;;;6.22;41.59
69219;BME280;56232;53.384;-2.732;2024-01-27T04:11:33;102591.56;;;6.16;41.85
69219;BME280;56232;53.384;-2.732;2024-01-27T04:13:58;102591.43;;;6.21;41.90
69219;BME280;56232;53.384;-2.732;2024-01-27T04:16:25;102596.08;;;5.27;41.94
69219;BME280;56232;53.384;-2.732;2024-01-27T04:18:49;102591.23;;;5.95;41.91
69219;BME280;56232;53.384;-2.732;2024-01-27T04:21:15;102593.58;;;6.23;41.53
69219;BME280;56232;53.384;-2.732;2024-01-27T04:23:40;102594.04;;;5.97;41.24
69219;BME280;56232;53.384;-2.732;2024-01-27T04:26:06;102589.26;;;6.02;41.02
69219;BME280;56232;53.384;-2.732;2024-01-27T04:28:32;102585.30;;;6.14;40.74
69219;BME280;56232;53.384;-2.732;2024-01-27T04:30:58;102592.86;;;6.25;40.65
69219;BME280;56232;53.384;-2.732;2024-01-27T04:33:25;102593.31;;;6.41;40.46
69219;BME280;56232;53.384;-2.732;2024-01-27T04:35:49;102592.53;;;6.58;40.54
69219;BME280;56232;53.384;-2.732;2024-01-27T04:38:15;102599.10;;;6.75;40.30
69219;BME280;56232;53.384;-2.732;2024-01-27T04:40:40;102599.00;;;6.15;40.49
69219;BME280;56232;53.384;-2.732;2024-01-27T04:43:06;102593.32;;;6.73;40.31
69219;BME280;56232;53.384;-2.732;2024-01-27T04:45:32;102593.22;;;6.77;40.28
69219;BME280;56232;53.384;-2.732;2024-01-27T04:47:58;102595.46;;;6.22;40.22
69219;BME280;56232;53.384;-2.732;2024-01-27T04:50:24;102597.19;;;6.29;40.24
69219;BME280;56232;53.384;-2.732;2024-01-27T04:52:49;102595.67;;;6.33;40.29
69219;BME280;56232;53.384;-2.732;2024-01-27T04:55:14;102592.46;;;6.96;40.34
69219;BME280;56232;53.384;-2.732;2024-01-27T04:57:40;102588.63;;;6.31;40.23
69219;BME280;56232;53.384;-2.732;2024-01-27T05:00:07;102589.90;;;6.30;40.42
69219;BME280;56232;53.384;-2.732;2024-01-27T05:02:32;102585.60;;;6.41;40.35
69219;BME280;56232;53.384;-2.732;2024-01-27T05:04:57;102578.53;;;6.51;39.94
69219;BME280;56232;53.384;-2.732;2024-01-27T05:07:24;102583.74;;;6.44;39.84
69219;BME280;56232;53.384;-2.732;2024-01-27T05:09:48;102583.76;;;6.37;40.10
69219;BME280;56232;53.384;-2.732;2024-01-27T05:12:14;102580.48;;;6.46;39.89
69219;BME280;56232;53.384;-2.732;2024-01-27T05:14:43;102578.45;;;7.15;39.78
69219;BME280;56232;53.384;-2.732;2024-01-27T05:17:06;102580.00;;;5.99;40.00
69219;BME280;56232;53.384;-2.732;2024-01-27T05:19:31;102585.01;;;6.46;40.37
69219;BME280;56232;53.384;-2.732;2024-01-27T05:21:57;102579.65;;;6.99;40.37
69219;BME280;56232;53.384;-2.732;2024-01-27T05:24:24;102579.11;;;7.00;40.12
69219;BME280;56232;53.384;-2.732;2024-01-27T05:26:48;102580.37;;;5.95;39.93
69219;BME280;56232;53.384;-2.732;2024-01-27T05:29:14;102584.16;;;6.60;39.97
69219;BME280;56232;53.384;-2.732;2024-01-27T05:31:39;102578.23;;;6.55;39.90
69219;BME280;56232;53.384;-2.732;2024-01-27T05:34:05;102571.15;;;7.22;39.64
69219;BME280;56232;53.384;-2.732;2024-01-27T05:36:31;102566.49;;;6.69;39.61
69219;BME280;56232;53.384;-2.732;2024-01-27T05:38:57;102570.77;;;6.68;39.62
69219;BME280;56232;53.384;-2.732;2024-01-27T05:41:26;102570.51;;;7.35;39.47
69219;BME280;56232;53.384;-2.732;2024-01-27T05:43:48;102565.91;;;6.79;39.43
69219;BME280;56232;53.384;-2.732;2024-01-27T05:46:14;102559.77;;;6.29;39.57
69219;BME280;56232;53.384;-2.732;2024-01-27T05:48:40;102561.11;;;6.80;39.37
69219;BME280;56232;53.384;-2.732;2024-01-27T05:51:05;102556.87;;;6.82;39.42
69219;BME280;56232;53.384;-2.732;2024-01-27T05:53:32;102553.85;;;6.94;39.47
69219;BME280;56232;53.384;-2.732;2024-01-27T05:55:56;102552.92;;;7.04;39.31
69219;BME280;56232;53.384;-2.732;2024-01-27T05:58:23;102555.07;;;7.66;39.35
69219;BME280;56232;53.384;-2.732;2024-01-27T06:00:48;102558.10;;;6.99;39.77
69219;BME280;56232;53.384;-2.732;2024-01-27T06:03:14;102558.45;;;6.94;39.83
69219;BME280;56232;53.384;-2.732;2024-01-27T06:05:39;102556.44;;;7.13;39.63
69219;BME280;56232;53.384;-2.732;2024-01-27T06:08:05;102555.46;;;7.09;39.93
69219;BME280;56232;53.384;-2.732;2024-01-27T06:10:30;102558.60;;;6.99;39.80
69219;BME280;56232;53.384;-2.732;2024-01-27T06:12:56;102558.67;;;6.84;39.96
69219;BME280;56232;53.384;-2.732;2024-01-27T06:15:22;102555.40;;;6.73;39.57
69219;BME280;56232;53.384;-2.732;2024-01-27T06:17:48;102554.14;;;7.35;40.06
69219;BME280;56232;53.384;-2.732;2024-01-27T06:20:14;102558.67;;;6.78;39.83
69219;BME280;56232;53.384;-2.732;2024-01-27T06:22:39;102561.61;;;6.33;39.58
69219;BME280;56232;53.384;-2.732;2024-01-27T06:25:05;102555.12;;;6.28;39.77
69219;BME280;56232;53.384;-2.732;2024-01-27T06:27:30;102548.06;;;6.66;40.23
69219;BME280;56232;53.384;-2.732;2024-01-27T06:29:56;102543.47;;;7.08;40.14
69219;BME280;56232;53.384;-2.732;2024-01-27T06:32:21;102542.00;;;6.45;40.05
69219;BME280;56232;53.384;-2.732;2024-01-27T06:34:47;102541.71;;;7.00;39.46
69219;BME280;56232;53.384;-2.732;2024-01-27T06:37:13;102542.84;;;6.97;39.93
69219;BME280;56232;53.384;-2.732;2024-01-27T06:39:38;102544.63;;;6.28;40.21
69219;BME280;56232;53.384;-2.732;2024-01-27T06:42:04;102537.39;;;6.37;39.75
69219;BME280;56232;53.384;-2.732;2024-01-27T06:44:30;102544.98;;;7.14;40.08
69219;BME280;56232;53.384;-2.732;2024-01-27T06:46:55;102545.53;;;6.73;39.71
69219;BME280;56232;53.384;-2.732;2024-01-27T06:49:21;102540.37;;;6.89;39.67
69219;BME280;56232;53.384;-2.732;2024-01-27T06:51:47;102541.73;;;7.49;39.72
69219;BME280;56232;53.384;-2.732;2024-01-27T06:54:12;102543.34;;;6.99;39.54
69219;BME280;56232;53.384;-2.732;2024-01-27T06:56:38;102541.97;;;6.57;39.74
69219;BME280;56232;53.384;-2.732;2024-01-27T06:59:04;102542.72;;;7.19;39.38
69219;BME280;56232;53.384;-2.732;2024-01-27T07:01:29;102542.15;;;7.24;39.32
69219;BME280;56232;53.384;-2.732;2024-01-27T07:03:55;102543.48;;;6.91;39.51
69219;BME280;56232;53.384;-2.732;2024-01-27T07:06:21;102552.61;;;6.62;38.95
69219;BME280;56232;53.384;-2.732;2024-01-27T07:08:47;102558.77;;;7.62;38.95
69219;BME280;56232;53.384;-2.732;2024-01-27T07:11:12;102561.90;;;7.31;38.32
69219;BME280;56232;53.384;-2.732;2024-01-27T07:13:38;102565.65;;;6.27;38.29
69219;BME280;56232;53.384;-2.732;2024-01-27T07:16:05;102570.64;;;7.44;38.30
69219;BME280;56232;53.384;-2.732;2024-01-27T07:18:29;102569.66;;;7.56;38.51
69219;BME280;56232;53.384;-2.732;2024-01-27T07:20:55;102563.42;;;8.02;38.42
69219;BME280;56232;53.384;-2.732;2024-01-27T07:23:21;102559.86;;;7.47;38.51
69219;BME280;56232;53.384;-2.732;2024-01-27T07:25:47;102564.11;;;7.85;38.84
69219;BME280;56232;53.384;-2.732;2024-01-27T07:28:12;102563.07;;;7.26;38.54
69219;BME280;56232;53.384;-2.732;2024-01-27T07:30:38;102561.63;;;7.28;38.63
69219;BME280;56232;53.384;-2.732;2024-01-27T07:33:04;102562.90;;;7.26;38.74
69219;BME280;56232;53.384;-2.732;2024-01-27T07:35:29;102551.95;;;7.11;38.71
69219;BME280;56232;53.384;-2.732;2024-01-27T07:37:54;102545.61;;;6.92;38.73
69219;BME280;56232;53.384;-2.732;2024-01-27T07:40:20;102548.93;;;7.32;38.79
69219;BME280;56232;53.384;-2.732;2024-01-27T07:42:46;102550.67;;;7.20;39.52
69219;BME280;56232;53.384;-2.732;2024-01-27T07:45:11;102552.59;;;7.14;39.55
69219;BME280;56232;53.384;-2.732;2024-01-27T07:47:36;102545.69;;;6.68;39.55
69219;BME280;56232;53.384;-2.732;2024-01-27T07:50:01;102546.89;;;6.68;39.71
69219;BME280;56232;53.384;-2.732;2024-01-27T07:52:27;102544.07;;;6.74;39.55
69219;BME280;56232;53.384;-2.732;2024-01-27T07:54:52;102548.03;;;7.85;39.88
69219;BME280;56232;53.384;-2.732;2024-01-27T07:57:18;102548.86;;;6.87;39.57
69219;BME280;56232;53.384;-2.732;2024-01-27T07:59:43;102556.27;;;7.05;39.32
69219;BME280;56232;53.384;-2.732;2024-01-27T08:02:09;102558.32;;;7.28;39.02
69219;BME280;56232;53.384;-2.732;2024-01-27T08:04:35;102560.62;;;7.88;38.60
69219;BME280;56232;53.384;-2.732;2024-01-27T08:07:06;102562.25;;;7.14;38.35
69219;BME280;56232;53.384;-2.732;2024-01-27T08:09:26;102567.75;;;7.71;38.18
69219;BME280;56232;53.384;-2.732;2024-01-27T08:11:52;102567.38;;;7.53;37.96
69219;BME280;56232;53.384;-2.732;2024-01-27T08:14:18;102573.78;;;7.45;37.85
69219;BME280;56232;53.384;-2.732;2024-01-27T08:16:43;102575.82;;;7.32;37.87
69219;BME280;56232;53.384;-2.732;2024-01-27T08:19:09;102569.47;;;7.36;37.96
69219;BME280;56232;53.384;-2.732;2024-01-27T08:21:35;102569.99;;;7.28;38.25
69219;BME280;56232;53.384;-2.732;2024-01-27T08:24:01;102574.27;;;7.14;38.39
69219;BME280;56232;53.384;-2.732;2024-01-27T08:26:27;102579.22;;;6.86;38.33
69219;BME280;56232;53.384;-2.732;2024-01-27T08:28:52;102581.37;;;6.92;38.36
69219;BME280;56232;53.384;-2.732;2024-01-27T08:31:17;102578.79;;;6.94;38.47
69219;BME280;56232;53.384;-2.732;2024-01-27T08:33:43;102574.46;;;6.91;38.42
69219;BME280;56232;53.384;-2.732;2024-01-27T08:36:13;102568.94;;;6.45;38.40
69219;BME280;56232;53.384;-2.732;2024-01-27T08:38:35;102570.36;;;6.42;38.39
69219;BME280;56232;53.384;-2.732;2024-01-27T08:41:01;102574.22;;;7.14;38.51
69219;BME280;56232;53.384;-2.732;2024-01-27T08:43:26;102570.32;;;7.32;38.48
69219;BME280;56232;53.384;-2.732;2024-01-27T08:45:52;102572.63;;;6.98;38.34
69219;BME280;56232;53.384;-2.732;2024-01-27T08:48:17;102578.32;;;7.63;38.36
69219;BME280;56232;53.384;-2.732;2024-01-27T08:50:43;102580.99;;;7.64;38.29
69219;BME280;56232;53.384;-2.732;2024-01-27T08:53:09;102576.94;;;7.64;38.33
69219;BME280;56232;53.384;-2.732;2024-01-27T08:55:35;102574.21;;;6.58;38.42
69219;BME280;56232;53.384;-2.732;2024-01-27T08:58:00;102576.10;;;7.59;38.32
69219;BME280;56232;53.384;-2.732;2024-01-27T09:00:26;102574.42;;;7.42;38.61
69219;BME280;56232;53.384;-2.732;2024-01-27T09:02:52;102575.52;;;7.34;38.64
69219;BME280;56232;53.384;-2.732;2024-01-27T09:05:17;102572.51;;;6.80;38.75
69219;BME280;56232;53.384;-2.732;2024-01-27T09:07:42;102572.93;;;7.31;38.73
69219;BME280;56232;53.384;-2.732;2024-01-27T09:10:09;102576.59;;;7.40;38.86
69219;BME280;56232;53.384;-2.732;2024-01-27T09:12:34;102569.75;;;7.36;38.92
69219;BME280;56232;53.384;-2.732;2024-01-27T09:14:59;102571.15;;;7.39;38.98
69219;BME280;56232;53.384;-2.732;2024-01-27T09:17:26;102574.19;;;7.48;38.76
69219;BME280;56232;53.384;-2.732;2024-01-27T09:19:50;102571.73;;;7.55;38.84
69219;BME280;56232;53.384;-2.732;2024-01-27T09:22:16;102568.98;;;7.49;38.95
69219;BME280;56232;53.384;-2.732;2024-01-27T09:24:47;102571.76;;;6.47;38.89
69219;BME280;56232;53.384;-2.732;2024-01-27T09:27:07;102575.20;;;7.62;38.71
69219;BME280;56232;53.384;-2.732;2024-01-27T09:29:33;102573.01;;;7.78;38.78
69219;BME280;56232;53.384;-2.732;2024-01-27T09:31:59;102568.46;;;7.91;38.57
69219;BME280;56232;53.384;-2.732;2024-01-27T09:34:26;102565.09;;;8.09;38.57
69219;BME280;56232;53.384;-2.732;2024-01-27T09:36:50;102561.45;;;7.17;38.51
69219;BME280;56232;53.384;-2.732;2024-01-27T09:39:16;102558.91;;;7.98;38.09
69219;BME280;56232;53.384;-2.732;2024-01-27T09:41:42;102557.97;;;7.49;38.11
69219;BME280;56232;53.384;-2.732;2024-01-27T09:44:07;102563.23;;;7.68;38.12
69219;BME280;56232;53.384;-2.732;2024-01-27T09:46:33;102561.13;;;7.92;37.86
69219;BME280;56232;53.384;-2.732;2024-01-27T09:48:59;102562.42;;;8.12;37.75
69219;BME280;56232;53.384;-2.732;2024-01-27T09:51:27;102560.11;;;8.18;37.68
69219;BME280;56232;53.384;-2.732;2024-01-27T09:53:50;102562.84;;;8.07;37.83
69219;BME280;56232;53.384;-2.732;2024-01-27T09:56:16;102561.43;;;8.15;37.81
69219;BME280;56232;53.384;-2.732;2024-01-27T09:58:41;102556.69;;;8.33;37.60
69219;BME280;56232;53.384;-2.732;2024-01-27T10:01:08;102557.43;;;8.30;37.49
69219;BME280;56232;53.384;-2.732;2024-01-27T10:03:34;102559.23;;;8.26;37.61
69219;BME280;56232;53.384;-2.732;2024-01-27T10:06:00;102567.91;;;8.35;37.52
69219;BME280;56232;53.384;-2.732;2024-01-27T10:08:27;102563.85;;;8.45;37.75
69219;BME280;56232;53.384;-2.732;2024-01-27T10:10:53;102566.57;;;8.54;37.45
69219;BME280;56232;53.384;-2.732;2024-01-27T10:13:16;102564.72;;;8.62;37.39
69219;BME280;56232;53.384;-2.732;2024-01-27T10:15:41;102559.63;;;8.70;37.56
69219;BME280;56232;53.384;-2.732;2024-01-27T10:18:08;102559.96;;;8.80;37.79
69219;BME280;56232;53.384;-2.732;2024-01-27T10:20:33;102558.06;;;8.85;37.70
69219;BME280;56232;53.384;-2.732;2024-01-27T10:22:58;102553.14;;;8.96;37.47
69219;BME280;56232;53.384;-2.732;2024-01-27T10:25:24;102547.89;;;9.64;37.82
69219;BME280;56232;53.384;-2.732;2024-01-27T10:27:49;102538.65;;;8.97;37.90
69219;BME280;56232;53.384;-2.732;2024-01-27T10:30:16;102544.70;;;8.94;38.35
69219;BME280;56232;53.384;-2.732;2024-01-27T10:32:40;102541.65;;;8.82;38.05
69219;BME280;56232;53.384;-2.732;2024-01-27T10:35:07;102535.99;;;8.97;37.80
69219;BME280;56232;53.384;-2.732;2024-01-27T10:37:32;102537.19;;;9.03;37.86
69219;BME280;56232;53.384;-2.732;2024-01-27T10:40:02;102538.83;;;9.12;38.00
69219;BME280;56232;53.384;-2.732;2024-01-27T10:42:28;102533.13;;;8.73;37.64
69219;BME280;56232;53.384;-2.732;2024-01-27T10:44:49;102531.12;;;8.96;37.67
69219;BME280;56232;53.384;-2.732;2024-01-27T10:47:16;102531.98;;;9.76;37.37
69219;BME280;56232;53.384;-2.732;2024-01-27T10:49:42;102526.87;;;9.56;37.22
69219;BME280;56232;53.384;-2.732;2024-01-27T10:52:11;102526.55;;;9.68;36.87
69219;BME280;56232;53.384;-2.732;2024-01-27T10:54:33;102528.92;;;9.37;36.68
69219;BME280;56232;53.384;-2.732;2024-01-27T10:56:57;102528.22;;;9.93;37.34
69219;BME280;56232;53.384;-2.732;2024-01-27T10:59:26;102522.60;;;10.27;37.00
69219;BME280;56232;53.384;-2.732;2024-01-27T11:01:49;102527.50;;;9.20;36.97
69219;BME280;56232;53.384;-2.732;2024-01-27T11:04:15;102527.31;;;9.22;36.65
69219;BME280;56232;53.384;-2.732;2024-01-27T11:06:40;102533.39;;;9.84;37.11
69219;BME280;56232;53.384;-2.732;2024-01-27T11:09:08;102529.35;;;9.38;36.73
69219;BME280;56232;53.384;-2.732;2024-01-27T11:11:32;102525.37;;;9.48;37.40
69219;BME280;56232;53.384;-2.732;2024-01-27T11:13:57;102522.95;;;9.65;37.04
69219;BME280;56232;53.384;-2.732;2024-01-27T11:16:23;102526.38;;;9.58;36.35
69219;BME280;56232;53.384;-2.732;2024-01-27T11:18:50;102528.84;;;9.45;37.08
69219;BME280;56232;53.384;-2.732;2024-01-27T11:21:16;102526.68;;;9.45;36.88
69219;BME280;56232;53.384;-2.732;2024-01-27T11:23:39;102522.94;;;9.90;37.07
69219;BME280;56232;53.384;-2.732;2024-01-27T11:26:05;102518.88;;;9.28;36.95
69219;BME280;56232;53.384;-2.732;2024-01-27T11:28:30;102513.73;;;9.40;36.68
69219;BME280;56232;53.384;-2.732;2024-01-27T11:30:56;102503.22;;;9.55;37.13
69219;BME280;56232;53.384;-2.732;2024-01-27T11:35:47;102494.35;;;9.72;37.54
69219;BME280;56232;53.384;-2.732;2024-01-27T11:38:12;102504.12;;;10.45;37.35
69219;BME280;56232;53.384;-2.732;2024-01-27T11:40:44;102502.61;;;10.39;36.96
69219;BME280;56232;53.384;-2.732;2024-01-27T11:43:04;102503.96;;;10.60;36.96
69219;BME280;56232;53.384;-2.732;2024-01-27T11:45:30;102511.99;;;11.01;36.88
69219;BME280;56232;53.384;-2.732;2024-01-27T11:47:55;102509.16;;;10.61;37.01
69219;BME280;56232;53.384;-2.732;2024-01-27T11:50:20;102505.41;;;10.44;36.70
69219;BME280;56232;53.384;-2.732;2024-01-27T11:52:45;102509.14;;;10.16;36.48
69219;BME280;56232;53.384;-2.732;2024-01-27T11:55:11;102503.14;;;10.19;37.22
69219;BME280;56232;53.384;-2.732;2024-01-27T11:57:37;102498.50;;;10.24;37.17
69219;BME280;56232;53.384;-2.732;2024-01-27T12:00:03;102499.59;;;10.30;38.15
69219;BME280;56232;53.384;-2.732;2024-01-27T12:02:28;102494.01;;;10.33;38.21
69219;BME280;56232;53.384;-2.732;2024-01-27T12:04:54;102491.49;;;10.34;37.98
69219;BME280;56232;53.384;-2.732;2024-01-27T12:07:19;102487.12;;;10.37;37.84
69219;BME280;56232;53.384;-2.732;2024-01-27T12:09:45;102492.46;;;10.70;37.68
69219;BME280;56232;53.384;-2.732;2024-01-27T12:12:12;102490.28;;;10.76;37.46
69219;BME280;56232;53.384;-2.732;2024-01-27T12:14:38;102485.65;;;10.44;37.66
69219;BME280;56232;53.384;-2.732;2024-01-27T12:17:01;102492.62;;;11.43;36.61
69219;BME280;56232;53.384;-2.732;2024-01-27T12:19:27;102480.63;;;11.07;36.07
69219;BME280;56232;53.384;-2.732;2024-01-27T12:21:52;102475.02;;;10.75;35.68
69219;BME280;56232;53.384;-2.732;2024-01-27T12:24:18;102468.64;;;10.65;36.18
69219;BME280;56232;53.384;-2.732;2024-01-27T12:26:44;102473.26;;;11.17;36.77
69219;BME280;56232;53.384;-2.732;2024-01-27T12:29:09;102465.87;;;10.56;36.60
69219;BME280;56232;53.384;-2.732;2024-01-27T12:31:35;102465.42;;;11.45;35.61
69219;BME280;56232;53.384;-2.732;2024-01-27T12:34:00;102448.00;;;10.12;35.21
69219;BME280;56232;53.384;-2.732;2024-01-27T12:36:27;102450.93;;;10.83;34.88
69219;BME280;56232;53.384;-2.732;2024-01-27T12:38:56;102455.09;;;10.70;35.59
69219;BME280;56232;53.384;-2.732;2024-01-27T12:41:17;102456.78;;;10.32;36.29
69219;BME280;56232;53.384;-2.732;2024-01-27T12:43:43;102453.00;;;10.95;35.83
69219;BME280;56232;53.384;-2.732;2024-01-27T12:46:08;102446.92;;;10.26;36.44